Time;durP1;ratioP1;P1;durP2;ratioP2;P2;SDS_P1;SDS_P2;PMS_P1;PMS_P2;Temp;Humidity;BMP_temperature;BMP_pressure;BME280_temperature;BME280_humidity;BME280_pressure;Samples;Min_cycle;Max_cycle;Signal;HPM_P1;HPM_P2
2022/07/21 00:39:54;;;;;;;8.98;4.70;;;;;;;;;;6159893;22;20405;-89
2022/07/21 00:53:04;;;;;;;8.05;5.00;;;;;;;;;;6313194;22;20254;-89
2022/07/21 00:56:15;;;;;;;11.85;5.13;;;;;;;;;;6312834;22;20473;-89
2022/07/21 00:59:23;;;;;;;12.02;5.13;;;;;;;;;;6312188;22;20207;-90
2022/07/21 01:02:31;;;;;;;12.63;4.95;;;;;;;;;;6312298;22;20169;-89
2022/07/21 01:05:38;;;;;;;8.35;5.30;;;;;;;;;;6313144;22;20165;-90
2022/07/21 01:12:14;;;;;;;11.68;5.47;;;;;;;;;;6312538;22;20245;-89
2022/07/21 01:49:41;;;;;;;11.13;5.65;;;;;;;;;;6337806;22;20574;-89
2022/07/21 01:52:47;;;;;;;10.32;4.85;;;;;;;;;;6337533;22;20180;-90
2022/07/21 01:55:53;;;;;;;14.32;5.22;;;;;;;;;;6332557;22;20243;-92
2022/07/21 01:58:58;;;;;;;10.73;5.18;;;;;;;;;;6337595;22;20237;-90
2022/07/21 02:02:04;;;;;;;15.52;6.57;;;;;;;;;;6336478;22;20181;-91
2022/07/21 02:05:10;;;;;;;11.45;5.10;;;;;;;;;;6340048;22;20191;-91
2022/07/21 02:08:16;;;;;;;9.95;4.60;;;;;;;;;;6338006;22;20164;-90
2022/07/21 02:11:21;;;;;;;13.95;5.47;;;;;;;;;;6338865;22;20172;-88
2022/07/21 02:14:26;;;;;;;7.55;4.80;;;;;;;;;;6338153;22;20195;-88
2022/07/21 02:17:32;;;;;;;9.63;5.22;;;;;;;;;;6337098;22;20160;-90
2022/07/21 02:20:39;;;;;;;9.77;5.05;;;;;;;;;;6336270;22;20156;-90
2022/07/21 02:23:45;;;;;;;9.32;5.22;;;;;;;;;;6337772;22;20173;-90
2022/07/21 02:26:50;;;;;;;11.38;5.88;;;;;;;;;;6339511;22;20216;-90
2022/07/21 02:29:55;;;;;;;12.80;6.53;;;;;;;;;;6339595;22;20221;-89
2022/07/21 02:33:02;;;;;;;15.70;8.80;;;;;;;;;;6338152;22;20264;-91
2022/07/21 02:36:10;;;;;;;16.95;7.05;;;;;;;;;;6338773;22;20260;-92
2022/07/21 02:39:15;;;;;;;17.17;6.85;;;;;;;;;;6340742;22;20160;-89
2022/07/21 02:42:21;;;;;;;22.98;9.93;;;;;;;;;;6337513;22;20187;-89
2022/07/21 02:45:26;;;;;;;15.73;7.90;;;;;;;;;;6335658;22;20203;-90
2022/07/21 02:48:31;;;;;;;13.23;5.63;;;;;;;;;;6337470;22;20479;-89
2022/07/21 02:51:38;;;;;;;10.18;5.30;;;;;;;;;;6336261;22;20169;-90
2022/07/21 02:54:44;;;;;;;11.57;5.85;;;;;;;;;;6356920;22;20184;-90
2022/07/21 02:57:49;;;;;;;20.00;6.88;;;;;;;;;;6340072;22;20207;-90
2022/07/21 03:00:55;;;;;;;19.08;7.50;;;;;;;;;;6340261;22;20164;-91
2022/07/21 03:04:01;;;;;;;13.32;6.90;;;;;;;;;;6338487;22;20520;-88
2022/07/21 03:07:07;;;;;;;15.55;6.63;;;;;;;;;;6338282;22;20232;-90
2022/07/21 03:10:13;;;;;;;15.43;7.20;;;;;;;;;;6338473;22;20183;-88
2022/07/21 03:13:18;;;;;;;17.33;7.88;;;;;;;;;;6336383;22;20172;-90
2022/07/21 03:16:24;;;;;;;23.08;6.90;;;;;;;;;;6336524;22;20168;-89
2022/07/21 03:19:29;;;;;;;13.52;6.97;;;;;;;;;;6337864;22;20160;-89
2022/07/21 03:22:37;;;;;;;16.33;6.53;;;;;;;;;;6339364;22;20157;-90
2022/07/21 03:25:43;;;;;;;10.63;6.20;;;;;;;;;;6337658;22;20608;-88
2022/07/21 03:28:48;;;;;;;13.73;7.03;;;;;;;;;;6337388;22;20601;-90
2022/07/21 03:31:58;;;;;;;12.90;6.57;;;;;;;;;;6338347;22;20260;-92
2022/07/21 03:35:03;;;;;;;19.13;7.85;;;;;;;;;;6338359;22;20169;-91
2022/07/21 03:38:12;;;;;;;18.33;6.85;;;;;;;;;;6338155;22;20173;-90
2022/07/21 03:41:18;;;;;;;12.45;6.50;;;;;;;;;;6337165;22;20661;-90
2022/07/21 03:44:35;;;;;;;15.07;7.20;;;;;;;;;;6337804;22;20273;-91
2022/07/21 03:47:41;;;;;;;13.63;7.95;;;;;;;;;;6357550;22;20166;-90
2022/07/21 03:50:47;;;;;;;14.30;8.18;;;;;;;;;;6338163;22;20215;-91
2022/07/21 03:53:53;;;;;;;12.02;7.18;;;;;;;;;;6337311;22;20264;-89
2022/07/21 03:56:58;;;;;;;17.92;7.63;;;;;;;;;;6334662;22;20271;-90
2022/07/21 04:00:06;;;;;;;15.82;7.38;;;;;;;;;;6337245;22;20183;-88
2022/07/21 04:03:19;;;;;;;17.70;8.65;;;;;;;;;;6355656;22;20218;-89
2022/07/21 04:06:28;;;;;;;12.73;6.90;;;;;;;;;;6337409;22;20605;-89
2022/07/21 04:09:35;;;;;;;21.98;8.80;;;;;;;;;;6337414;22;20164;-89
2022/07/21 04:12:41;;;;;;;11.48;7.88;;;;;;;;;;6336000;22;20260;-89
2022/07/21 04:15:46;;;;;;;15.57;8.02;;;;;;;;;;6336569;22;20156;-91
2022/07/21 04:18:51;;;;;;;16.00;8.60;;;;;;;;;;6337220;22;20168;-91
2022/07/21 04:21:56;;;;;;;14.63;8.40;;;;;;;;;;6336989;22;20168;-90
2022/07/21 04:25:04;;;;;;;22.60;7.80;;;;;;;;;;6337847;22;20240;-90
2022/07/21 04:28:11;;;;;;;23.65;7.85;;;;;;;;;;6338289;22;20165;-89
2022/07/21 04:31:16;;;;;;;13.23;8.45;;;;;;;;;;6336159;22;20218;-89
2022/07/21 04:34:21;;;;;;;15.70;7.47;;;;;;;;;;6338354;22;20169;-89
2022/07/21 04:37:26;;;;;;;11.68;6.20;;;;;;;;;;6338874;22;20152;-91
2022/07/21 04:40:33;;;;;;;13.43;6.57;;;;;;;;;;6338056;22;20311;-90
2022/07/21 04:43:39;;;;;;;14.18;6.68;;;;;;;;;;6337306;22;20283;-89
2022/07/21 04:46:51;;;;;;;9.82;6.70;;;;;;;;;;6338303;22;20148;-90
2022/07/21 04:49:59;;;;;;;13.02;6.68;;;;;;;;;;6338558;22;20173;-90
2022/07/21 04:53:04;;;;;;;14.07;7.28;;;;;;;;;;6337196;22;20168;-89
2022/07/21 04:56:11;;;;;;;15.35;7.15;;;;;;;;;;6336545;22;20270;-88
2022/07/21 04:59:16;;;;;;;14.98;8.48;;;;;;;;;;6336749;22;20155;-91
2022/07/21 05:02:22;;;;;;;17.02;7.72;;;;;;;;;;6336277;22;20206;-90
2022/07/21 05:05:28;;;;;;;10.38;7.28;;;;;;;;;;6336109;22;20168;-91
2022/07/21 05:08:33;;;;;;;13.85;6.88;;;;;;;;;;6338375;22;20217;-90
2022/07/21 05:11:40;;;;;;;18.95;7.90;;;;;;;;;;6339966;22;20192;-90
2022/07/21 05:14:46;;;;;;;17.02;7.82;;;;;;;;;;6340216;22;20184;-87
2022/07/21 05:17:54;;;;;;;16.35;7.40;;;;;;;;;;6343458;22;20309;-88
2022/07/21 05:21:02;;;;;;;16.25;8.55;;;;;;;;;;6341698;22;20168;-90
2022/07/21 05:24:15;;;;;;;12.38;7.70;;;;;;;;;;6342742;22;20227;-89
2022/07/21 05:27:31;;;;;;;20.38;8.95;;;;;;;;;;6343738;22;20199;-88
2022/07/21 05:30:38;;;;;;;13.68;7.53;;;;;;;;;;6344035;22;20217;-90
2022/07/21 05:33:54;;;;;;;13.70;7.28;;;;;;;;;;6345268;22;20179;-89
2022/07/21 05:36:59;;;;;;;13.73;7.75;;;;;;;;;;6339476;22;20187;-90
2022/07/21 05:40:05;;;;;;;15.43;6.68;;;;;;;;;;6338147;22;20169;-89
2022/07/21 05:43:15;;;;;;;17.38;7.53;;;;;;;;;;6339483;22;20164;-89
2022/07/21 05:46:46;;;;;;;14.88;6.70;;;;;;;;;;6340569;22;20161;-91
2022/07/21 05:49:54;;;;;;;12.55;6.00;;;;;;;;;;6339577;22;20597;-90
2022/07/21 05:53:00;;;;;;;13.38;5.43;;;;;;;;;;6340985;22;20147;-89
2022/07/21 05:56:05;;;;;;;17.23;6.57;;;;;;;;;;6340889;22;20283;-89
2022/07/21 05:59:13;;;;;;;18.05;8.88;;;;;;;;;;6340530;22;20165;-88
2022/07/21 06:02:19;;;;;;;17.15;7.72;;;;;;;;;;6341545;22;20180;-90
2022/07/21 06:05:28;;;;;;;16.80;7.32;;;;;;;;;;6343642;22;20234;-88
2022/07/21 06:08:34;;;;;;;15.13;7.80;;;;;;;;;;6343803;22;20148;-91
2022/07/21 06:18:26;;;;;;;21.65;8.55;;;;;;;;;;6342312;22;20148;-91
2022/07/21 06:21:33;;;;;;;18.98;8.07;;;;;;;;;;6341213;22;20165;-88
2022/07/21 06:24:39;;;;;;;13.43;8.00;;;;;;;;;;6342381;22;20176;-89
2022/07/21 06:27:45;;;;;;;18.45;8.18;;;;;;;;;;6342568;22;20164;-91
2022/07/21 06:34:35;;;;;;;17.05;8.48;;;;;;;;;;6342170;22;20184;-89
2022/07/21 06:37:45;;;;;;;17.92;8.55;;;;;;;;;;6342187;22;20251;-92
2022/07/21 06:40:51;;;;;;;15.90;7.13;;;;;;;;;;6338823;22;20291;-88
2022/07/21 06:44:06;;;;;;;15.10;6.97;;;;;;;;;;6339144;22;20191;-89
2022/07/21 06:47:12;;;;;;;16.10;8.25;;;;;;;;;;6358472;22;20176;-90
2022/07/21 06:50:19;;;;;;;14.88;6.30;;;;;;;;;;6337701;22;20172;-90
2022/07/21 06:53:25;;;;;;;15.10;5.68;;;;;;;;;;6337246;22;20155;-91
2022/07/21 06:56:30;;;;;;;8.48;4.80;;;;;;;;;;6340449;22;20207;-88
2022/07/21 06:59:35;;;;;;;6.10;4.32;;;;;;;;;;6339688;22;20164;-91
2022/07/21 07:02:41;;;;;;;9.48;4.00;;;;;;;;;;6340144;22;20172;-91
2022/07/21 07:05:49;;;;;;;6.40;4.13;;;;;;;;;;6338886;22;20552;-89
2022/07/21 07:08:54;;;;;;;11.77;4.30;;;;;;;;;;6338725;22;20148;-91
2022/07/21 07:12:05;;;;;;;11.88;4.10;;;;;;;;;;6342172;22;20147;-91
2022/07/21 07:15:11;;;;;;;9.07;3.83;;;;;;;;;;6342012;22;20168;-91
2022/07/21 07:18:20;;;;;;;5.70;3.65;;;;;;;;;;6341456;22;20168;-90
2022/07/21 07:21:27;;;;;;;8.52;3.50;;;;;;;;;;6342236;22;20167;-89
2022/07/21 07:24:33;;;;;;;10.23;3.65;;;;;;;;;;6345943;22;20238;-90
2022/07/21 07:27:45;;;;;;;6.43;3.50;;;;;;;;;;6342217;22;20155;-91
2022/07/21 07:30:53;;;;;;;9.75;3.30;;;;;;;;;;6339336;22;20178;-93
2022/07/21 07:33:58;;;;;;;7.97;3.53;;;;;;;;;;6342597;22;20172;-91
2022/07/21 07:37:06;;;;;;;4.72;3.15;;;;;;;;;;6338038;22;20209;-90
2022/07/21 07:40:18;;;;;;;8.55;3.60;;;;;;;;;;6340034;22;20151;-91
2022/07/21 09:20:24;;;;;;;9.55;5.72;;;;;;;;;;6156824;22;20361;-89
2022/07/21 09:23:29;;;;;;;8.20;5.20;;;;;;;;;;6307732;22;20475;-90
2022/07/21 09:26:35;;;;;;;7.95;5.28;;;;;;;;;;6308605;22;20156;-88
2022/07/21 09:29:42;;;;;;;8.02;5.28;;;;;;;;;;6309360;22;20181;-90
2022/07/21 09:32:48;;;;;;;8.60;5.07;;;;;;;;;;6308191;22;20176;-91
2022/07/21 09:35:56;;;;;;;10.68;5.55;;;;;;;;;;6308738;22;20165;-90
2022/07/21 09:39:01;;;;;;;9.70;5.70;;;;;;;;;;6306528;22;20173;-90
2022/07/21 09:42:13;;;;;;;8.02;5.75;;;;;;;;;;6306060;22;20554;-90
2022/07/21 09:45:22;;;;;;;13.02;5.68;;;;;;;;;;6306351;22;20200;-92
2022/07/21 09:48:32;;;;;;;9.90;5.07;;;;;;;;;;6306529;22;20174;-92
2022/07/21 09:51:41;;;;;;;6.32;4.88;;;;;;;;;;6305662;22;20217;-90
2022/07/21 09:54:47;;;;;;;6.55;5.22;;;;;;;;;;6306465;22;20180;-91
2022/07/21 09:57:53;;;;;;;8.75;5.32;;;;;;;;;;6326902;22;20165;-92
2022/07/21 10:00:58;;;;;;;10.30;5.50;;;;;;;;;;6307726;22;20231;-92
2022/07/21 10:04:04;;;;;;;8.60;5.35;;;;;;;;;;6306819;22;20168;-90
2022/07/21 10:07:14;;;;;;;7.07;4.68;;;;;;;;;;6310238;22;20152;-90
2022/07/21 10:10:20;;;;;;;7.80;5.07;;;;;;;;;;6308678;22;20283;-91
2022/07/21 10:13:26;;;;;;;6.45;5.07;;;;;;;;;;6308689;22;20195;-91
2022/07/21 10:16:32;;;;;;;8.85;4.93;;;;;;;;;;6309845;22;20184;-90
2022/07/21 10:19:42;;;;;;;7.65;5.50;;;;;;;;;;6308938;22;20178;-90
2022/07/21 10:22:58;;;;;;;10.65;5.22;;;;;;;;;;6310721;22;20165;-91
2022/07/21 10:26:05;;;;;;;7.75;5.13;;;;;;;;;;6309505;22;20163;-91
2022/07/21 10:32:31;;;;;;;8.35;5.22;;;;;;;;;;6313134;22;20180;-91
2022/07/21 10:35:47;;;;;;;8.90;5.78;;;;;;;;;;6312502;22;20195;-89
2022/07/21 13:44:06;;;;;;;12.13;6.18;;;;;;;;;;6247871;22;20213;-90
2022/07/21 13:47:12;;;;;;;11.43;5.97;;;;;;;;;;6306755;22;20155;-88
2022/07/21 13:50:18;;;;;;;10.50;5.10;;;;;;;;;;6307186;22;20240;-92
2022/07/21 13:53:24;;;;;;;7.90;5.30;;;;;;;;;;6313695;22;20210;-90
2022/07/21 13:56:30;;;;;;;9.82;5.72;;;;;;;;;;6313327;22;20177;-89
2022/07/21 13:59:41;;;;;;;14.10;5.20;;;;;;;;;;6313602;22;20210;-90
2022/07/21 14:03:02;;;;;;;7.07;4.68;;;;;;;;;;6312933;22;20169;-89
2022/07/21 14:06:21;;;;;;;9.18;5.30;;;;;;;;;;6313845;22;20211;-91
2022/07/21 14:09:27;;;;;;;7.55;5.40;;;;;;;;;;6306477;22;20168;-87
2022/07/21 14:12:33;;;;;;;10.43;5.30;;;;;;;;;;6307296;22;20149;-89
2022/07/21 14:15:39;;;;;;;10.15;5.13;;;;;;;;;;6313880;22;20196;-90
2022/07/21 14:18:46;;;;;;;7.80;5.07;;;;;;;;;;6311792;22;20156;-90
2022/07/21 14:22:00;;;;;;;14.02;5.00;;;;;;;;;;6310495;22;20233;-89
2022/07/21 14:25:22;;;;;;;7.38;4.82;;;;;;;;;;6312535;22;20194;-91
2022/07/21 14:28:29;;;;;;;10.63;5.15;;;;;;;;;;6313338;22;20165;-89
2022/07/21 14:31:35;;;;;;;8.75;5.10;;;;;;;;;;6313100;22;20180;-89
2022/07/21 14:38:08;;;;;;;9.18;4.63;;;;;;;;;;6314488;22;20281;-90
2022/07/21 14:41:15;;;;;;;9.13;4.85;;;;;;;;;;6311152;22;20207;-90
2022/07/21 14:44:22;;;;;;;8.48;4.93;;;;;;;;;;6311830;22;20173;-91
2022/07/21 20:47:12;;;;;;;15.98;7.30;;;;;;;;;;6272205;22;20230;-88
2022/07/21 20:50:21;;;;;;;11.30;7.25;;;;;;;;;;6309523;22;20161;-89
2022/07/21 20:53:30;;;;;;;19.05;8.35;;;;;;;;;;6310186;22;20304;-88
2022/07/21 20:56:40;;;;;;;15.52;7.88;;;;;;;;;;6310931;22;20184;-86
2022/07/21 20:59:48;;;;;;;21.05;12.05;;;;;;;;;;6311550;22;20227;-87
2022/07/21 21:06:18;;;;;;;16.77;9.25;;;;;;;;;;6311683;22;20216;-88
2022/07/21 21:09:24;;;;;;;15.20;9.25;;;;;;;;;;6306485;22;20172;-87
2022/07/21 21:12:29;;;;;;;16.48;7.97;;;;;;;;;;6305559;22;20168;-89
2022/07/21 21:15:34;;;;;;;15.30;8.27;;;;;;;;;;6307671;22;20196;-86
2022/07/21 21:18:41;;;;;;;14.25;8.18;;;;;;;;;;6306754;22;20276;-89
2022/07/21 21:21:48;;;;;;;17.45;8.20;;;;;;;;;;6305951;22;20177;-86
2022/07/21 21:24:54;;;;;;;15.55;9.00;;;;;;;;;;6303954;22;20272;-86
2022/07/21 21:28:00;;;;;;;18.20;11.68;;;;;;;;;;6303443;22;20149;-86
2022/07/21 21:31:06;;;;;;;16.77;9.02;;;;;;;;;;6322340;22;20491;-86
2022/07/21 21:34:13;;;;;;;20.40;9.60;;;;;;;;;;6300504;22;20224;-86
2022/07/21 21:37:19;;;;;;;17.80;10.00;;;;;;;;;;6304390;22;20713;-88
2022/07/21 21:43:44;;;;;;;18.38;10.40;;;;;;;;;;6304997;22;20179;-88
2022/07/21 21:46:49;;;;;;;18.00;10.63;;;;;;;;;;6305855;22;20192;-88
2022/07/21 21:49:55;;;;;;;15.25;10.13;;;;;;;;;;6325197;22;20211;-88
2022/07/21 21:53:02;;;;;;;16.58;10.15;;;;;;;;;;6327207;22;20157;-88
2022/07/21 21:56:07;;;;;;;21.85;11.45;;;;;;;;;;6308658;22;20197;-89
2022/07/21 22:02:55;;;;;;;17.05;10.50;;;;;;;;;;6305976;22;20180;-87
2022/07/21 22:06:03;;;;;;;17.95;10.43;;;;;;;;;;6310705;22;20165;-88
2022/07/21 22:09:08;;;;;;;16.73;10.45;;;;;;;;;;6311632;22;20173;-88
2022/07/21 22:12:16;;;;;;;16.00;10.75;;;;;;;;;;6311472;22;20189;-88
2022/07/21 22:15:21;;;;;;;21.67;11.75;;;;;;;;;;6311693;22;20173;-90
2022/07/21 22:18:35;;;;;;;16.67;10.60;;;;;;;;;;6313026;22;20214;-89
2022/07/21 22:25:18;;;;;;;17.20;10.38;;;;;;;;;;6330075;22;20171;-87
2022/07/21 22:28:24;;;;;;;16.38;10.52;;;;;;;;;;6330386;22;20169;-88
2022/07/21 22:31:32;;;;;;;18.63;11.15;;;;;;;;;;6330247;22;20189;-87
2022/07/21 22:34:40;;;;;;;19.92;11.88;;;;;;;;;;6311947;22;20197;-89
2022/07/21 22:37:47;;;;;;;22.10;11.95;;;;;;;;;;6311711;22;20177;-89
2022/07/21 22:40:54;;;;;;;22.98;12.88;;;;;;;;;;6313514;22;20229;-88
2022/07/21 22:44:30;;;;;;;20.60;11.43;;;;;;;;;;6312190;22;20238;-88
2022/07/21 22:47:35;;;;;;;20.15;11.07;;;;;;;;;;6328787;22;20239;-88
2022/07/21 22:50:41;;;;;;;18.50;11.98;;;;;;;;;;6311731;22;20168;-89
2022/07/21 22:53:46;;;;;;;19.63;10.98;;;;;;;;;;6311071;22;20169;-89
2022/07/21 22:56:53;;;;;;;19.02;11.80;;;;;;;;;;6304232;22;20233;-88
2022/07/21 22:59:58;;;;;;;18.65;12.00;;;;;;;;;;6305125;22;20172;-87
